Time;durP1;ratioP1;P1;durP2;ratioP2;P2;SDS_P1;SDS_P2;PMS_P1;PMS_P2;Temp;Humidity;BMP_temperature;BMP_pressure;BME280_temperature;BME280_humidity;BME280_pressure;Samples;Min_cycle;Max_cycle;Signal;HPM_P1;HPM_P2
2022/08/02 00:01:53;;;;;;;0.00;0.00;;;;;;;17.60;100.00;98042.19;6125638;23;20065;-58
2022/08/02 00:04:20;;;;;;;0.00;0.00;;;;;;;17.52;100.00;98040.22;6125653;23;20017;-58
2022/08/02 00:06:48;;;;;;;0.00;0.00;;;;;;;17.49;100.00;98042.31;6125196;23;20072;-58
2022/08/02 00:09:15;;;;;;;0.00;0.00;;;;;;;17.40;100.00;98038.69;6125576;23;20093;-59
2022/08/02 00:11:44;;;;;;;0.00;0.00;;;;;;;17.37;100.00;98035.47;6125621;23;20080;-58
2022/08/02 00:14:12;;;;;;;0.00;0.00;;;;;;;17.32;100.00;98043.88;6125642;23;20025;-58
2022/08/02 00:16:39;;;;;;;0.00;0.00;;;;;;;17.28;100.00;98052.25;6125493;23;20018;-58
2022/08/02 00:19:07;;;;;;;0.00;0.00;;;;;;;17.26;100.00;98040.94;6125605;23;20045;-58
2022/08/02 00:21:34;;;;;;;0.00;0.00;;;;;;;17.24;100.00;98049.06;6125119;23;20022;-58
2022/08/02 00:24:01;;;;;;;0.00;0.00;;;;;;;17.22;100.00;98055.50;6125608;23;20025;-58
2022/08/02 00:26:29;;;;;;;0.00;0.00;;;;;;;17.19;100.00;98045.94;6125535;23;20021;-58
2022/08/02 00:28:58;;;;;;;0.00;0.00;;;;;;;17.16;100.00;98051.56;6099661;23;20045;-59
2022/08/02 00:31:26;;;;;;;0.00;0.00;;;;;;;17.15;100.00;98047.22;6099533;23;20025;-58
2022/08/02 00:33:53;;;;;;;0.00;0.00;;;;;;;17.13;100.00;98053.66;6125340;23;20022;-57
2022/08/02 00:36:21;;;;;;;0.00;0.00;;;;;;;17.12;100.00;98055.50;6124869;23;20018;-58
2022/08/02 00:38:49;;;;;;;0.00;0.00;;;;;;;17.12;100.00;98057.28;6125366;23;20339;-58
2022/08/02 00:41:19;;;;;;;0.00;0.00;;;;;;;17.09;100.00;98063.72;6125230;23;20042;-58
2022/08/02 00:43:47;;;;;;;0.00;0.00;;;;;;;17.08;100.00;98058.56;6125568;23;20168;-58
2022/08/02 00:46:18;;;;;;;0.00;0.00;;;;;;;17.08;100.00;98055.91;6125313;23;20352;-58
2022/08/02 00:48:46;;;;;;;0.00;0.00;;;;;;;17.06;100.00;98057.84;6125045;23;20068;-58
2022/08/02 00:51:14;;;;;;;0.00;0.00;;;;;;;17.05;100.00;98057.00;6125206;23;20025;-58
2022/08/02 00:53:41;;;;;;;0.00;0.00;;;;;;;17.04;100.00;98054.50;6125110;23;20028;-58
2022/08/02 00:56:09;;;;;;;0.00;0.00;;;;;;;17.03;100.00;98056.28;6125104;23;20045;-58
2022/08/02 00:58:37;;;;;;;0.00;0.00;;;;;;;17.03;100.00;98060.75;6125121;23;20448;-58
2022/08/02 01:01:04;;;;;;;0.00;0.00;;;;;;;17.02;100.00;98059.09;6125119;23;20018;-58
2022/08/02 01:03:33;;;;;;;0.00;0.00;;;;;;;17.02;100.00;98062.59;6125188;23;20022;-58
2022/08/02 01:06:00;;;;;;;0.00;0.00;;;;;;;17.04;100.00;98068.59;6124966;23;20448;-58
2022/08/02 01:08:28;;;;;;;0.00;0.00;;;;;;;17.08;100.00;98066.53;6124255;23;20018;-58
2022/08/02 01:10:55;;;;;;;0.00;0.00;;;;;;;17.06;100.00;98064.00;6125019;23;20029;-58
2022/08/02 01:13:25;;;;;;;0.00;0.00;;;;;;;17.02;100.00;98067.91;6125063;23;20018;-58
2022/08/02 01:16:02;;;;;;;0.00;0.00;;;;;;;17.00;100.00;98079.66;6124969;23;20041;-58
2022/08/02 01:18:38;;;;;;;0.00;0.00;;;;;;;16.96;100.00;98075.59;6125066;23;20463;-58
2022/08/02 01:21:24;;;;;;;0.00;0.00;;;;;;;16.92;100.00;98072.34;6124744;23;20029;-57
2022/08/02 01:24:05;;;;;;;0.00;0.00;;;;;;;16.88;100.00;98076.25;6125024;23;20441;-58
2022/08/02 01:26:41;;;;;;;0.00;0.00;;;;;;;16.87;100.00;98084.34;6125003;23;20022;-58
2022/08/02 01:29:14;;;;;;;0.00;0.00;;;;;;;16.85;100.00;98075.69;6124787;23;20018;-57
2022/08/02 01:31:48;;;;;;;0.00;0.00;;;;;;;16.81;100.00;98077.75;6124997;23;20018;-58
2022/08/02 01:34:20;;;;;;;0.00;0.00;;;;;;;16.80;100.00;98084.06;6124572;23;20022;-58
2022/08/02 01:36:54;;;;;;;0.00;0.00;;;;;;;16.82;100.00;98071.47;6124414;23;20463;-58
2022/08/02 01:39:26;;;;;;;0.00;0.00;;;;;;;16.82;100.00;98086.59;6124783;23;20024;-58
2022/08/02 01:41:56;;;;;;;0.00;0.00;;;;;;;16.81;100.00;98075.09;6124740;23;20049;-58
2022/08/02 01:44:28;;;;;;;0.00;0.00;;;;;;;16.82;100.00;98070.63;6124875;23;20022;-58
2022/08/02 01:46:58;;;;;;;0.00;0.00;;;;;;;16.83;100.00;98067.00;6124733;23;20432;-58
2022/08/02 01:49:29;;;;;;;0.00;0.00;;;;;;;16.84;100.00;98064.22;6124585;23;20066;-58
2022/08/02 01:54:45;;;;;;;0.00;0.00;;;;;;;16.79;100.00;98079.72;6125085;23;20350;-59
2022/08/02 01:57:16;;;;;;;0.00;0.00;;;;;;;16.76;100.00;98074.69;6124697;23;20022;-58
2022/08/02 01:59:46;;;;;;;0.00;0.00;;;;;;;16.76;100.00;98073.81;6125004;23;20022;-58
2022/08/02 02:02:16;;;;;;;0.00;0.00;;;;;;;16.74;100.00;98070.47;6098928;23;20022;-59
2022/08/02 02:04:46;;;;;;;0.00;0.00;;;;;;;16.72;100.00;98077.72;6124580;23;20022;-58
2022/08/02 02:07:14;;;;;;;0.00;0.00;;;;;;;16.70;100.00;98077.03;6124080;23;20017;-58
2022/08/02 02:09:43;;;;;;;0.00;0.00;;;;;;;16.68;100.00;98073.66;6124807;23;20013;-58
2022/08/02 02:12:14;;;;;;;0.00;0.00;;;;;;;16.66;100.00;98073.81;6124593;23;20025;-58
2022/08/02 02:14:43;;;;;;;0.00;0.00;;;;;;;16.63;100.00;98081.22;6124659;23;20042;-58
2022/08/02 02:17:13;;;;;;;0.00;0.00;;;;;;;16.59;100.00;98077.16;6124525;23;20028;-57
2022/08/02 02:19:42;;;;;;;0.00;0.00;;;;;;;16.57;100.00;98081.75;6124768;23;20028;-59
2022/08/02 02:22:10;;;;;;;0.00;0.00;;;;;;;16.56;100.00;98083.53;6124812;23;20025;-58
2022/08/02 02:24:38;;;;;;;0.00;0.00;;;;;;;16.53;100.00;98089.16;6124560;23;20024;-58
2022/08/02 02:27:09;;;;;;;0.00;0.00;;;;;;;16.50;100.00;98086.75;6124439;23;20022;-58
2022/08/02 02:29:43;;;;;;;0.00;0.00;;;;;;;16.46;100.00;98081.84;6124536;23;20028;-58
2022/08/02 02:32:15;;;;;;;0.00;0.00;;;;;;;16.44;100.00;98089.09;6124525;23;20021;-59
2022/08/02 02:34:45;;;;;;;0.00;0.00;;;;;;;16.45;100.00;98088.94;6125140;23;20847;-58
2022/08/02 02:37:17;;;;;;;0.00;0.00;;;;;;;16.50;100.00;98093.88;6124194;23;20022;-58
2022/08/02 02:39:47;;;;;;;0.00;0.00;;;;;;;16.49;100.00;98090.38;6124501;23;20475;-58
2022/08/02 02:42:18;;;;;;;0.00;0.00;;;;;;;16.52;100.00;98097.25;6124253;23;20080;-58
2022/08/02 02:44:47;;;;;;;0.00;0.00;;;;;;;16.52;100.00;98086.63;6125943;23;20017;-58
2022/08/02 02:47:19;;;;;;;0.00;0.00;;;;;;;16.56;100.00;98080.06;6126377;23;20050;-58
2022/08/02 02:49:47;;;;;;;0.00;0.00;;;;;;;16.54;100.00;98082.00;6126914;23;20446;-58
2022/08/02 02:52:16;;;;;;;0.00;0.00;;;;;;;16.53;100.00;98080.31;6126240;23;20021;-58
2022/08/02 02:54:46;;;;;;;0.00;0.00;;;;;;;16.54;100.00;98092.63;6126210;23;20029;-58
2022/08/02 02:57:14;;;;;;;0.00;0.00;;;;;;;16.53;100.00;98083.84;6126314;23;20022;-58
2022/08/02 02:59:42;;;;;;;0.00;0.00;;;;;;;16.53;100.00;98086.50;6126283;23;20018;-58
2022/08/02 03:02:11;;;;;;;0.00;0.00;;;;;;;16.56;100.00;98085.38;6126363;23;20022;-58
2022/08/02 03:04:42;;;;;;;0.00;0.00;;;;;;;16.56;100.00;98088.84;6126054;23;20018;-59
2022/08/02 03:07:10;;;;;;;0.00;0.00;;;;;;;16.58;100.00;98086.91;6125524;23;20037;-58
2022/08/02 03:09:37;;;;;;;0.00;0.00;;;;;;;16.60;100.00;98084.13;6126422;23;20420;-58
2022/08/02 03:12:07;;;;;;;0.00;0.00;;;;;;;16.62;100.00;98085.69;6126221;23;20523;-57
2022/08/02 03:14:40;;;;;;;0.00;0.00;;;;;;;16.64;100.00;98080.22;6126171;23;20452;-58
2022/08/02 03:17:07;;;;;;;0.00;0.00;;;;;;;16.65;100.00;98082.75;6126505;23;20378;-58
2022/08/02 03:19:35;;;;;;;0.00;0.00;;;;;;;16.67;100.00;98079.97;6125950;23;20540;-58
2022/08/02 03:22:04;;;;;;;0.00;0.00;;;;;;;16.67;100.00;98075.47;6126119;23;20025;-58
2022/08/02 03:24:31;;;;;;;0.00;0.00;;;;;;;16.72;100.00;98073.28;6126294;23;20369;-58
2022/08/02 03:26:59;;;;;;;0.00;0.00;;;;;;;16.78;100.00;98074.53;6125931;23;20029;-58
2022/08/02 03:29:26;;;;;;;0.00;0.00;;;;;;;16.88;100.00;98070.06;6125912;23;20042;-58
2022/08/02 03:31:54;;;;;;;0.00;0.00;;;;;;;16.95;100.00;98065.94;6125982;23;20028;-58
2022/08/02 03:34:22;;;;;;;0.00;0.00;;;;;;;17.05;100.00;98080.09;6125899;23;20102;-58
2022/08/02 03:36:53;;;;;;;0.00;0.00;;;;;;;17.10;100.00;98085.81;6125681;23;20345;-58
2022/08/02 03:39:23;;;;;;;0.00;0.00;;;;;;;17.11;100.00;98077.72;6125840;23;20037;-58
2022/08/02 03:41:51;;;;;;;0.00;0.00;;;;;;;17.14;100.00;98080.09;6126090;23;20354;-58
2022/08/02 03:44:19;;;;;;;0.00;0.00;;;;;;;17.19;100.00;98082.34;6125868;23;20022;-58
2022/08/02 03:46:47;;;;;;;0.00;0.00;;;;;;;17.22;100.00;98090.88;6125718;23;20025;-58
2022/08/02 03:49:17;;;;;;;0.00;0.00;;;;;;;17.26;100.00;98088.81;6125762;23;20187;-58
2022/08/02 03:51:45;;;;;;;0.00;0.00;;;;;;;17.26;100.00;98089.63;6126154;23;20045;-58
2022/08/02 03:54:13;;;;;;;0.00;0.00;;;;;;;17.33;100.00;98096.06;6125699;23;20503;-58
2022/08/02 03:56:42;;;;;;;0.00;0.00;;;;;;;17.45;100.00;98096.78;6125352;23;20028;-58
2022/08/02 03:59:11;;;;;;;0.00;0.00;;;;;;;17.50;100.00;98094.53;6125758;23;20507;-58
2022/08/02 04:01:39;;;;;;;0.00;0.00;;;;;;;17.51;100.00;98098.88;6125640;23;20022;-57
2022/08/02 04:04:07;;;;;;;0.00;0.00;;;;;;;17.53;100.00;98102.25;6125671;23;20074;-58
2022/08/02 04:06:35;;;;;;;0.00;0.00;;;;;;;17.55;100.00;98109.09;6125199;23;20022;-58
2022/08/02 04:09:02;;;;;;;0.00;0.00;;;;;;;17.60;100.00;98114.88;6125545;23;20029;-58
2022/08/02 04:11:30;;;;;;;0.00;0.00;;;;;;;17.66;100.00;98122.28;6125696;23;20022;-58
2022/08/02 04:14:00;;;;;;;0.00;0.00;;;;;;;17.67;100.00;98121.28;6125345;23;20314;-58
2022/08/02 04:16:34;;;;;;;0.00;0.00;;;;;;;17.69;100.00;98110.50;6125575;23;20041;-58
2022/08/02 04:19:03;;;;;;;0.00;0.00;;;;;;;17.67;100.00;98117.81;6125948;23;20026;-58
2022/08/02 04:21:35;;;;;;;0.00;0.00;;;;;;;17.65;100.00;98125.06;6125636;23;20399;-58
2022/08/02 04:24:06;;;;;;;0.00;0.00;;;;;;;17.63;100.00;98133.19;6125530;23;20092;-57
2022/08/02 04:26:36;;;;;;;0.00;0.00;;;;;;;17.63;100.00;98132.38;6125409;23;20061;-58
2022/08/02 04:29:06;;;;;;;0.00;0.00;;;;;;;17.66;100.00;98137.41;6125437;23;20073;-58
2022/08/02 04:31:34;;;;;;;0.00;0.00;;;;;;;17.65;100.00;98135.72;6125503;23;20021;-58
2022/08/02 04:34:02;;;;;;;0.00;0.00;;;;;;;17.65;100.00;98135.72;6125352;23;20025;-58
2022/08/02 04:36:30;;;;;;;0.00;0.00;;;;;;;17.58;100.00;98134.59;6124931;23;20021;-58
2022/08/02 04:38:57;;;;;;;0.00;0.00;;;;;;;17.56;100.00;98141.88;6126197;23;20018;-59
2022/08/02 04:41:37;;;;;;;0.00;0.00;;;;;;;17.59;100.00;98138.94;6125933;23;20457;-58
2022/08/02 04:44:06;;;;;;;0.00;0.00;;;;;;;17.78;100.00;98142.44;6125339;23;20397;-58
2022/08/02 04:46:34;;;;;;;0.00;0.00;;;;;;;17.82;100.00;98140.38;6125177;23;20025;-58
2022/08/02 04:49:02;;;;;;;0.00;0.00;;;;;;;17.73;100.00;98151.81;6125223;23;20018;-58
2022/08/02 04:51:29;;;;;;;0.00;0.00;;;;;;;17.72;100.00;98138.69;6125125;23;20014;-58
2022/08/02 04:53:57;;;;;;;0.00;0.00;;;;;;;17.78;100.00;98140.75;6125082;23;20050;-58
2022/08/02 04:56:24;;;;;;;0.00;0.00;;;;;;;17.86;100.00;98139.13;6125104;23;20026;-57
2022/08/02 04:58:52;;;;;;;0.00;0.00;;;;;;;17.95;100.00;98135.59;6125060;23;20018;-58
2022/08/02 05:01:21;;;;;;;0.00;0.00;;;;;;;18.03;100.00;98137.56;6125238;23;20508;-58
2022/08/02 05:03:48;;;;;;;0.00;0.00;;;;;;;18.13;100.00;98133.88;6125777;23;20044;-58
2022/08/02 05:06:18;;;;;;;0.00;0.00;;;;;;;18.20;100.00;98143.00;6124681;23;20507;-58
2022/08/02 05:08:46;;;;;;;0.00;0.00;;;;;;;18.28;100.00;98145.78;6125002;23;20029;-58
2022/08/02 05:11:13;;;;;;;0.00;0.00;;;;;;;18.34;100.00;98149.69;6124982;23;20503;-58
2022/08/02 05:13:41;;;;;;;0.00;0.00;;;;;;;18.35;100.00;98146.06;6125068;23;20441;-58
2022/08/02 05:16:08;;;;;;;0.00;0.00;;;;;;;18.31;100.00;98150.00;6124867;23;20026;-59
2022/08/02 05:18:37;;;;;;;0.00;0.00;;;;;;;18.34;100.00;98155.88;6124921;23;20017;-58
2022/08/02 05:21:05;;;;;;;0.00;0.00;;;;;;;18.45;100.00;98161.03;6124792;23;20092;-57
2022/08/02 05:23:32;;;;;;;0.00;0.00;;;;;;;18.42;100.00;98163.97;6124952;23;20018;-58
2022/08/02 05:25:59;;;;;;;0.00;0.00;;;;;;;18.51;100.00;98167.59;6124912;23;20018;-58
2022/08/02 05:28:27;;;;;;;0.00;0.00;;;;;;;18.55;100.00;98161.84;6124847;23;20084;-58
2022/08/02 05:30:54;;;;;;;0.00;0.00;;;;;;;18.55;100.00;98164.50;6124778;23;20436;-58
2022/08/02 05:33:22;;;;;;;0.00;0.00;;;;;;;18.53;100.00;98169.13;6124815;23;20102;-58
2022/08/02 05:35:51;;;;;;;0.00;0.00;;;;;;;18.52;100.00;98172.78;6124747;23;20096;-57
2022/08/02 05:38:18;;;;;;;0.00;0.00;;;;;;;18.48;100.00;98170.56;6124281;23;20102;-58
2022/08/02 05:40:46;;;;;;;0.00;0.00;;;;;;;18.51;100.00;98172.94;6124799;23;20024;-58
2022/08/02 05:43:14;;;;;;;0.00;0.00;;;;;;;18.55;100.00;98172.50;6124754;23;20022;-58
2022/08/02 05:45:42;;;;;;;0.00;0.00;;;;;;;18.50;100.00;98181.91;6124703;23;20018;-58
2022/08/02 05:48:09;;;;;;;0.00;0.00;;;;;;;18.52;100.00;98186.13;6124635;23;20028;-58
2022/08/02 05:50:44;;;;;;;0.00;0.00;;;;;;;18.58;100.00;98182.03;6124679;23;20025;-58
2022/08/02 05:53:23;;;;;;;0.00;0.00;;;;;;;18.59;100.00;98181.88;6124849;23;20026;-58
2022/08/02 05:55:57;;;;;;;0.00;0.00;;;;;;;18.82;100.00;98193.91;6124722;23;20017;-58
2022/08/02 05:58:31;;;;;;;0.00;0.00;;;;;;;18.89;100.00;98194.16;6125232;23;20054;-58
2022/08/02 06:01:02;;;;;;;0.00;0.00;;;;;;;18.97;100.00;98192.44;6124625;23;20025;-58
2022/08/02 06:03:36;;;;;;;0.00;0.00;;;;;;;19.21;100.00;98195.44;6124547;23;20017;-58
2022/08/02 06:06:06;;;;;;;0.00;0.00;;;;;;;19.43;100.00;98195.06;6124539;23;20041;-58
2022/08/02 06:08:43;;;;;;;0.00;0.00;;;;;;;19.57;100.00;98185.72;6093343;23;20429;-58
2022/08/02 06:11:13;;;;;;;0.00;0.00;;;;;;;19.54;100.00;98186.00;6095133;23;20057;-58
2022/08/02 06:13:41;;;;;;;0.00;0.00;;;;;;;19.57;100.00;98196.38;6095304;23;20019;-58
2022/08/02 06:16:09;;;;;;;0.00;0.00;;;;;;;19.43;100.00;98200.41;6095308;23;20079;-58
2022/08/02 06:18:36;;;;;;;0.00;0.00;;;;;;;19.33;100.00;98198.72;6095136;23;20392;-58
